createdAt,value
2023-04-17T00:01:37.934Z,102505.00
2023-04-17T00:06:43.278Z,102507.44
2023-04-17T00:11:47.137Z,102496.34
2023-04-17T00:16:52.493Z,102510.84
2023-04-17T00:21:56.274Z,102500.94
2023-04-17T00:27:01.373Z,102501.63
2023-04-17T00:32:06.866Z,102503.41
2023-04-17T00:37:10.779Z,102502.38
2023-04-17T00:42:14.482Z,102495.53
2023-04-17T00:47:22.341Z,102496.53
2023-04-17T00:52:29.745Z,102488.91
2023-04-17T00:57:34.349Z,102482.41
2023-04-17T01:02:39.624Z,102478.81
2023-04-17T01:07:43.837Z,102482.19
2023-04-17T01:12:49.316Z,102482.75
2023-04-17T01:17:54.848Z,102481.25
2023-04-17T01:22:59.241Z,102478.94
2023-04-17T01:28:04.779Z,102476.09
2023-04-17T01:33:08.618Z,102477.69
2023-04-17T01:38:13.067Z,102478.25
2023-04-17T01:43:19.563Z,102479.81
2023-04-17T01:48:23.258Z,102480.97
2023-04-17T01:53:27.313Z,102490.63
2023-04-17T01:58:32.342Z,102489.47
2023-04-17T02:03:36.499Z,102492.94
2023-04-17T02:08:40.305Z,102495.66
2023-04-17T02:13:45.456Z,102496.19
2023-04-17T02:18:49.482Z,102494.97
2023-04-17T02:23:53.211Z,102491.16
2023-04-17T02:28:58.412Z,102487.13
2023-04-17T02:34:02.105Z,102487.00
2023-04-17T02:39:06.658Z,102487.13
2023-04-17T02:44:11.837Z,102478.78
2023-04-17T02:49:15.569Z,102480.59
2023-04-17T02:54:19.340Z,102479.03
2023-04-17T02:59:25.100Z,102475.44
2023-04-17T03:04:29.009Z,102472.94
2023-04-17T03:09:32.680Z,102481.06
2023-04-17T03:14:37.825Z,102482.62
2023-04-17T03:19:41.609Z,102482.25
2023-04-17T03:24:45.542Z,102496.53
2023-04-17T03:29:51.755Z,102494.59
2023-04-17T03:34:56.010Z,102490.69
2023-04-17T03:39:59.718Z,102492.69
2023-04-17T03:45:05.664Z,102485.94
2023-04-17T03:50:10.283Z,102482.81
2023-04-17T03:55:15.986Z,102498.41
2023-04-17T04:00:22.127Z,102500.44
2023-04-17T04:05:26.194Z,102490.78
2023-04-17T04:10:30.693Z,102500.09
2023-04-17T04:15:35.862Z,102499.06
2023-04-17T04:20:42.097Z,102497.16
2023-04-17T04:25:46.639Z,102492.09
2023-04-17T04:30:55.162Z,102494.56
2023-04-17T04:36:02.049Z,102500.75
2023-04-17T04:41:10.063Z,102504.09
2023-04-17T04:46:16.428Z,102506.69
2023-04-17T04:51:20.869Z,102508.37
2023-04-17T04:56:25.895Z,102516.59
2023-04-17T05:01:32.149Z,102523.81
2023-04-17T05:06:36.108Z,102512.94
2023-04-17T05:11:40.280Z,102522.03
2023-04-17T05:16:45.660Z,102524.47
2023-04-17T05:21:49.806Z,102527.38
2023-04-17T05:26:54.488Z,102535.75
2023-04-17T05:31:59.988Z,102532.53
2023-04-17T05:37:07.147Z,102539.72
2023-04-17T05:42:10.861Z,102535.47
2023-04-17T05:47:16.726Z,102544.00
2023-04-17T05:52:20.780Z,102541.75
2023-04-17T05:57:25.172Z,102549.84
2023-04-17T06:02:30.848Z,102550.41
2023-04-17T06:07:35.101Z,102555.66
2023-04-17T06:12:39.483Z,102559.28
2023-04-17T06:17:45.102Z,102570.69
2023-04-17T06:22:49.555Z,102566.56
2023-04-17T06:27:53.323Z,102572.03
2023-04-17T06:32:58.777Z,102579.56
2023-04-17T06:38:02.911Z,102585.09
2023-04-17T06:43:07.443Z,102584.25
2023-04-17T06:48:15.404Z,102589.22
2023-04-17T06:53:19.292Z,102592.97
2023-04-17T06:58:23.116Z,102595.78
2023-04-17T07:03:28.458Z,102589.81
2023-04-17T07:08:32.392Z,102590.97
2023-04-17T07:13:36.407Z,102588.75
2023-04-17T07:18:41.723Z,102596.19
2023-04-17T07:23:45.841Z,102608.28
2023-04-17T07:28:49.646Z,102608.66
2023-04-17T07:33:55.058Z,102602.94
2023-04-17T07:38:58.910Z,102616.53
2023-04-17T07:44:05.339Z,102618.91
2023-04-17T07:49:12.190Z,102628.25
2023-04-17T07:54:16.257Z,102617.91
2023-04-17T07:59:19.957Z,102629.72
2023-04-17T08:04:25.978Z,102628.91
2023-04-17T08:09:29.998Z,102632.25
2023-04-17T08:14:34.128Z,102640.41
2023-04-17T08:19:39.162Z,102638.28
2023-04-17T08:24:43.214Z,102636.94
2023-04-17T08:29:46.927Z,102635.28
2023-04-17T08:34:52.612Z,102640.84
2023-04-17T08:39:56.476Z,102636.41
2023-04-17T08:45:01.052Z,102634.28
2023-04-17T08:50:11.526Z,102636.66
2023-04-17T08:55:17.292Z,102632.72
2023-04-17T09:00:25.694Z,102642.31
2023-04-17T09:05:33.337Z,102644.66
2023-04-17T09:10:38.072Z,102635.81
2023-04-17T09:15:43.149Z,102649.78
2023-04-17T09:20:51.509Z,102643.00
2023-04-17T09:26:08.268Z,102649.78
2023-04-17T09:31:26.831Z,102648.72
2023-04-17T09:36:33.249Z,102651.56
2023-04-17T09:41:39.419Z,102644.00
2023-04-17T09:46:45.723Z,102648.47
2023-04-17T09:51:52.392Z,102637.22
2023-04-17T09:56:56.345Z,102635.19
2023-04-17T10:02:01.952Z,102631.97
2023-04-17T10:07:07.126Z,102624.59
2023-04-17T10:12:14.554Z,102629.59
2023-04-17T10:17:25.500Z,102630.50
2023-04-17T10:22:34.817Z,102628.78
2023-04-17T10:27:45.480Z,102634.44
2023-04-17T10:33:28.264Z,102618.84
2023-04-17T10:38:35.220Z,102637.44
2023-04-17T10:43:43.208Z,102628.44
2023-04-17T10:48:52.596Z,102621.28
2023-04-17T10:53:58.984Z,102620.06
2023-04-17T10:59:04.564Z,102610.94
2023-04-17T11:04:09.405Z,102621.75
2023-04-17T11:09:16.060Z,102617.50
2023-04-17T11:14:21.524Z,102613.56
2023-04-17T11:19:26.605Z,102602.41
2023-04-17T11:24:33.112Z,102608.41
2023-04-17T11:29:36.843Z,102606.34
2023-04-17T11:34:41.183Z,102608.06
2023-04-17T11:39:46.526Z,102592.31
2023-04-17T11:44:50.348Z,102589.56
2023-04-17T11:49:54.049Z,102597.03
2023-04-17T11:54:59.831Z,102594.16
2023-04-17T12:00:14.028Z,102573.66
2023-04-17T12:05:18.592Z,102572.28
2023-04-17T12:10:23.805Z,102573.94
2023-04-17T12:15:27.876Z,102563.75
2023-04-17T12:20:31.620Z,102573.50
2023-04-17T12:25:37.135Z,102577.66
2023-04-17T12:30:42.681Z,102575.34
2023-04-17T12:35:46.482Z,102578.19
2023-04-17T12:40:51.485Z,102579.13
2023-04-17T12:45:55.306Z,102577.75
2023-04-17T12:50:59.065Z,102577.22
2023-04-17T12:56:04.430Z,102577.53
2023-04-17T13:01:08.182Z,102572.13
2023-04-17T13:06:12.327Z,102570.13
2023-04-17T13:11:17.450Z,102571.75
2023-04-17T13:16:21.415Z,102566.38
2023-04-17T13:21:25.280Z,102562.84
2023-04-17T13:26:30.602Z,102563.13
2023-04-17T13:31:34.334Z,102568.44
2023-04-17T13:36:38.167Z,102561.97
2023-04-17T13:41:43.225Z,102556.19
2023-04-17T13:46:47.155Z,102557.22
2023-04-17T13:51:50.922Z,102537.38
2023-04-17T13:56:57.370Z,102538.66
2023-04-17T14:02:03.912Z,102535.03
2023-04-17T14:07:07.848Z,102521.72
2023-04-17T14:12:16.746Z,102533.72
2023-04-17T14:17:20.620Z,102511.50
2023-04-17T14:22:24.373Z,102507.06
2023-04-17T14:27:29.569Z,102516.84
2023-04-17T14:32:33.309Z,102500.97
2023-04-17T14:37:37.156Z,102499.12
2023-04-17T14:42:53.521Z,102493.41
2023-04-17T14:47:58.928Z,102492.44
2023-04-17T14:53:03.500Z,102483.66
2023-04-17T14:58:08.558Z,102492.66
2023-04-17T15:03:12.473Z,102484.63
2023-04-17T15:08:16.291Z,102487.22
2023-04-17T15:13:21.479Z,102470.47
2023-04-17T15:18:25.460Z,102476.44
2023-04-17T15:23:29.905Z,102477.41
2023-04-17T15:28:36.997Z,102469.34
2023-04-17T15:33:40.787Z,102463.44
2023-04-17T15:38:44.660Z,102459.66
2023-04-17T15:43:49.712Z,102461.31
2023-04-17T15:49:07.516Z,102458.59
2023-04-17T15:54:12.899Z,102462.19
2023-04-17T15:59:18.068Z,102463.06
2023-04-17T16:04:22.182Z,102455.12
2023-04-17T16:09:26.226Z,102451.59
2023-04-17T16:14:31.586Z,102452.41
2023-04-17T16:19:35.621Z,102448.72
2023-04-17T16:24:39.350Z,102448.88
2023-04-17T16:29:45.776Z,102441.72
2023-04-17T16:34:49.835Z,102442.97
2023-04-17T16:39:54.007Z,102448.75
2023-04-17T16:44:59.328Z,102447.47
2023-04-17T16:50:03.715Z,102457.69
2023-04-17T16:55:08.616Z,102453.87
2023-04-17T17:00:15.343Z,102455.91
2023-04-17T17:05:19.204Z,102462.25
2023-04-17T17:10:22.948Z,102456.50
2023-04-17T17:15:27.973Z,102460.00
2023-04-17T17:20:31.726Z,102459.66
2023-04-17T17:25:35.409Z,102465.28
2023-04-17T17:30:40.629Z,102466.44
2023-04-17T17:35:44.384Z,102467.53
2023-04-17T17:40:48.100Z,102464.69
2023-04-17T17:45:53.600Z,102454.19
2023-04-17T17:50:58.157Z,102457.88
2023-04-17T17:56:02.621Z,102460.50
2023-04-17T18:01:08.020Z,102460.41
2023-04-17T18:06:11.994Z,102464.16
2023-04-17T18:11:15.796Z,102466.12
2023-04-17T18:16:21.499Z,102465.38
2023-04-17T18:21:26.031Z,102474.94
2023-04-17T18:26:29.749Z,102474.78
2023-04-17T18:31:34.941Z,102475.94
2023-04-17T18:36:38.725Z,102479.50
2023-04-17T18:41:42.393Z,102481.88
2023-04-17T18:46:48.391Z,102479.62
2023-04-17T18:51:52.262Z,102476.72
2023-04-17T18:56:56.436Z,102482.44
2023-04-17T19:02:01.535Z,102480.97
2023-04-17T19:07:05.420Z,102485.75
2023-04-17T19:12:10.047Z,102488.97
2023-04-17T19:17:15.954Z,102494.50
2023-04-17T19:22:19.948Z,102488.34
2023-04-17T19:27:25.228Z,102495.16
2023-04-17T19:32:31.990Z,102495.88
2023-04-17T19:37:35.802Z,102503.41
2023-04-17T19:42:39.532Z,102497.25
2023-04-17T19:47:44.647Z,102496.88
2023-04-17T19:52:48.590Z,102502.34
2023-04-17T19:57:52.898Z,102510.91
2023-04-17T20:02:58.308Z,102510.69
2023-04-17T20:08:02.699Z,102518.09
2023-04-17T20:13:06.758Z,102513.16
2023-04-17T20:18:13.014Z,102520.72
2023-04-17T20:23:17.121Z,102518.59
2023-04-17T20:28:21.386Z,102523.78
2023-04-17T20:33:26.854Z,102519.22
2023-04-17T20:38:30.908Z,102519.13
2023-04-17T20:43:34.907Z,102521.37
2023-04-17T20:48:40.164Z,102518.16
2023-04-17T20:53:44.242Z,102516.56
2023-04-17T20:58:48.393Z,102509.03
2023-04-17T21:03:53.949Z,102513.50
2023-04-17T21:08:58.073Z,102511.50
2023-04-17T21:14:03.565Z,102506.44
2023-04-17T21:19:08.624Z,102504.53
2023-04-17T21:24:12.610Z,102502.66
2023-04-17T21:29:16.591Z,102509.00
2023-04-17T21:34:21.897Z,102507.66
2023-04-17T21:39:25.627Z,102514.22
2023-04-17T21:44:29.631Z,102512.00
2023-04-17T21:49:34.836Z,102516.00
2023-04-17T21:54:38.915Z,102517.84
2023-04-17T21:59:42.587Z,102514.75
2023-04-17T22:04:47.749Z,102512.56
2023-04-17T22:09:51.495Z,102519.97
2023-04-17T22:14:55.218Z,102509.91
2023-04-17T22:20:00.270Z,102517.38
2023-04-17T22:25:04.347Z,102522.88
2023-04-17T22:30:08.877Z,102528.63
2023-04-17T22:35:15.202Z,102523.34
2023-04-17T22:40:19.114Z,102525.13
2023-04-17T22:45:22.834Z,102522.78
2023-04-17T22:50:30.540Z,102514.31
2023-04-17T22:55:34.658Z,102516.16
2023-04-17T23:00:38.338Z,102515.53
2023-04-17T23:05:43.662Z,102517.72
2023-04-17T23:10:47.443Z,102517.84
2023-04-17T23:15:51.961Z,102512.81
2023-04-17T23:20:56.992Z,102509.81
2023-04-17T23:26:00.708Z,102517.63
2023-04-17T23:31:05.837Z,102517.31
2023-04-17T23:36:11.281Z,102517.78
2023-04-17T23:41:15.012Z,102522.44
2023-04-17T23:46:18.785Z,102519.88
2023-04-17T23:51:23.839Z,102521.44
2023-04-17T23:56:29.544Z,102518.88
